Gilmore, Illinois
Current Conditions -  °F | °C
As of 12:55 PM on Tuesday 27 Jan 2015 (Local Time) from K1H2 Reporting Station
Overcast Overcast  
Wind Chill: 29°   Ceiling: 1600
Heat Index: 34°   Visibility: 10mi
Dew Point: 27°   Wind: 6mph
Humidity: 75%   Direction: 350°N
Pressure: 30.16"   Gusts: NA
Location:  38.9611°N, 88.6337°W
Report Text: K1H2 271855Z AUTO 35005KT 10SM OVC016 01/M03 A3016 RMK AO2 T00121028
Loading
Personal Weather Stations






























Interactive Weather Map New forecast layout! Learn more

10-Day Weather Forecast

Advertisements
Track Severe Weather on mobile